sensor_id;sensor_type;location;lat;lon;timestamp;P1;durP1;ratioP1;P2;durP2;ratioP2
4758;SDS011;2393;50.560;12.636;2022-10-31T00:01:52;1.90;;;1.40;;
4758;SDS011;2393;50.560;12.636;2022-10-31T00:04:23;4.23;;;2.33;;
4758;SDS011;2393;50.560;12.636;2022-10-31T00:30:18;2.83;;;1.57;;
4758;SDS011;2393;50.560;12.636;2022-10-31T01:04:03;2.10;;;1.30;;
4758;SDS011;2393;50.560;12.636;2022-10-31T01:34:39;2.23;;;1.37;;
4758;SDS011;2393;50.560;12.636;2022-10-31T01:41:47;4.53;;;1.80;;
4758;SDS011;2393;50.560;12.636;2022-10-31T01:48:26;1.70;;;1.30;;
4758;SDS011;2393;50.560;12.636;2022-10-31T01:51:28;2.63;;;1.53;;
4758;SDS011;2393;50.560;12.636;2022-10-31T01:54:01;4.93;;;2.00;;
4758;SDS011;2393;50.560;12.636;2022-10-31T01:56:32;3.37;;;1.50;;
4758;SDS011;2393;50.560;12.636;2022-10-31T01:59:06;1.87;;;1.30;;
4758;SDS011;2393;50.560;12.636;2022-10-31T02:01:41;1.77;;;1.63;;
4758;SDS011;2393;50.560;12.636;2022-10-31T02:04:13;5.43;;;1.40;;
4758;SDS011;2393;50.560;12.636;2022-10-31T02:06:49;3.70;;;1.60;;
4758;SDS011;2393;50.560;12.636;2022-10-31T02:12:17;4.10;;;1.40;;
4758;SDS011;2393;50.560;12.636;2022-10-31T02:14:58;1.87;;;1.80;;
4758;SDS011;2393;50.560;12.636;2022-10-31T02:18:12;3.80;;;1.63;;
4758;SDS011;2393;50.560;12.636;2022-10-31T02:28:06;2.67;;;2.00;;
4758;SDS011;2393;50.560;12.636;2022-10-31T02:31:25;3.70;;;1.70;;
4758;SDS011;2393;50.560;12.636;2022-10-31T02:37:32;5.33;;;1.90;;
4758;SDS011;2393;50.560;12.636;2022-10-31T02:40:14;2.50;;;1.40;;
4758;SDS011;2393;50.560;12.636;2022-10-31T02:44:07;4.00;;;1.43;;
4758;SDS011;2393;50.560;12.636;2022-10-31T02:47:59;6.77;;;2.07;;
4758;SDS011;2393;50.560;12.636;2022-10-31T02:50:48;1.67;;;1.30;;
4758;SDS011;2393;50.560;12.636;2022-10-31T02:53:21;1.70;;;1.70;;
4758;SDS011;2393;50.560;12.636;2022-10-31T02:55:57;3.13;;;1.63;;
4758;SDS011;2393;50.560;12.636;2022-10-31T02:58:36;2.97;;;1.10;;
4758;SDS011;2393;50.560;12.636;2022-10-31T03:02:01;2.83;;;1.80;;
4758;SDS011;2393;50.560;12.636;2022-10-31T03:17:51;2.20;;;1.17;;
4758;SDS011;2393;50.560;12.636;2022-10-31T03:20:51;4.80;;;1.60;;
4758;SDS011;2393;50.560;12.636;2022-10-31T03:23:24;2.20;;;1.20;;
4758;SDS011;2393;50.560;12.636;2022-10-31T03:25:58;4.80;;;1.83;;
4758;SDS011;2393;50.560;12.636;2022-10-31T03:28:33;4.23;;;1.67;;
4758;SDS011;2393;50.560;12.636;2022-10-31T03:34:20;1.40;;;1.27;;
4758;SDS011;2393;50.560;12.636;2022-10-31T03:36:54;6.40;;;1.87;;
4758;SDS011;2393;50.560;12.636;2022-10-31T03:39:26;4.70;;;1.40;;
4758;SDS011;2393;50.560;12.636;2022-10-31T03:41:56;6.13;;;1.70;;
4758;SDS011;2393;50.560;12.636;2022-10-31T03:44:31;5.97;;;1.70;;
4758;SDS011;2393;50.560;12.636;2022-10-31T03:47:06;1.70;;;1.10;;
4758;SDS011;2393;50.560;12.636;2022-10-31T03:49:34;1.63;;;1.27;;
4758;SDS011;2393;50.560;12.636;2022-10-31T03:52:09;2.30;;;1.40;;
4758;SDS011;2393;50.560;12.636;2022-10-31T03:59:48;1.80;;;1.33;;
4758;SDS011;2393;50.560;12.636;2022-10-31T04:02:55;5.63;;;1.37;;
4758;SDS011;2393;50.560;12.636;2022-10-31T04:05:37;2.97;;;1.70;;
4758;SDS011;2393;50.560;12.636;2022-10-31T04:08:20;2.80;;;1.27;;
4758;SDS011;2393;50.560;12.636;2022-10-31T04:10:53;2.20;;;1.30;;
4758;SDS011;2393;50.560;12.636;2022-10-31T04:13:33;1.47;;;1.37;;
4758;SDS011;2393;50.560;12.636;2022-10-31T04:16:19;2.40;;;1.70;;
4758;SDS011;2393;50.560;12.636;2022-10-31T04:18:49;2.40;;;1.07;;
4758;SDS011;2393;50.560;12.636;2022-10-31T04:21:17;7.27;;;1.33;;
4758;SDS011;2393;50.560;12.636;2022-10-31T04:23:48;6.73;;;1.97;;
4758;SDS011;2393;50.560;12.636;2022-10-31T04:26:23;1.90;;;1.53;;
4758;SDS011;2393;50.560;12.636;2022-10-31T04:28:51;1.90;;;1.53;;
4758;SDS011;2393;50.560;12.636;2022-10-31T04:31:20;5.23;;;1.47;;
4758;SDS011;2393;50.560;12.636;2022-10-31T04:33:49;1.83;;;1.20;;
4758;SDS011;2393;50.560;12.636;2022-10-31T04:36:17;3.17;;;1.60;;
4758;SDS011;2393;50.560;12.636;2022-10-31T04:38:56;1.53;;;1.43;;
4758;SDS011;2393;50.560;12.636;2022-10-31T04:43:16;3.83;;;1.20;;
4758;SDS011;2393;50.560;12.636;2022-10-31T04:46:30;3.77;;;1.50;;
4758;SDS011;2393;50.560;12.636;2022-10-31T04:49:08;1.33;;;0.93;;
4758;SDS011;2393;50.560;12.636;2022-10-31T04:51:45;1.17;;;1.07;;
4758;SDS011;2393;50.560;12.636;2022-10-31T04:54:19;3.33;;;1.50;;
4758;SDS011;2393;50.560;12.636;2022-10-31T04:57:30;2.20;;;1.47;;
4758;SDS011;2393;50.560;12.636;2022-10-31T05:01:07;3.60;;;1.57;;
4758;SDS011;2393;50.560;12.636;2022-10-31T05:04:18;1.23;;;1.13;;
4758;SDS011;2393;50.560;12.636;2022-10-31T05:06:52;4.73;;;1.50;;
4758;SDS011;2393;50.560;12.636;2022-10-31T05:12:57;6.33;;;1.30;;
4758;SDS011;2393;50.560;12.636;2022-10-31T05:15:49;9.93;;;1.60;;
4758;SDS011;2393;50.560;12.636;2022-10-31T05:18:55;2.93;;;1.40;;
4758;SDS011;2393;50.560;12.636;2022-10-31T05:21:38;2.73;;;1.30;;
4758;SDS011;2393;50.560;12.636;2022-10-31T05:24:07;3.83;;;1.23;;
4758;SDS011;2393;50.560;12.636;2022-10-31T05:26:38;3.23;;;2.03;;
4758;SDS011;2393;50.560;12.636;2022-10-31T05:32:50;2.50;;;1.57;;
4758;SDS011;2393;50.560;12.636;2022-10-31T05:37:01;1.90;;;1.80;;
4758;SDS011;2393;50.560;12.636;2022-10-31T05:53:39;2.47;;;1.23;;
4758;SDS011;2393;50.560;12.636;2022-10-31T05:56:39;1.17;;;1.07;;
4758;SDS011;2393;50.560;12.636;2022-10-31T05:59:29;4.30;;;1.40;;
4758;SDS011;2393;50.560;12.636;2022-10-31T06:02:09;2.90;;;2.13;;
4758;SDS011;2393;50.560;12.636;2022-10-31T06:05:57;2.70;;;1.57;;
4758;SDS011;2393;50.560;12.636;2022-10-31T06:08:41;2.90;;;1.13;;
4758;SDS011;2393;50.560;12.636;2022-10-31T06:11:18;1.20;;;1.17;;
4758;SDS011;2393;50.560;12.636;2022-10-31T06:14:04;12.60;;;1.73;;
4758;SDS011;2393;50.560;12.636;2022-10-31T06:17:33;1.20;;;1.10;;
4758;SDS011;2393;50.560;12.636;2022-10-31T06:21:04;1.43;;;1.33;;
4758;SDS011;2393;50.560;12.636;2022-10-31T06:23:50;1.93;;;1.70;;
4758;SDS011;2393;50.560;12.636;2022-10-31T06:26:28;2.03;;;1.00;;
4758;SDS011;2393;50.560;12.636;2022-10-31T06:29:14;8.97;;;1.77;;
4758;SDS011;2393;50.560;12.636;2022-10-31T06:32:35;2.83;;;1.50;;
4758;SDS011;2393;50.560;12.636;2022-10-31T06:35:32;2.30;;;1.13;;
4758;SDS011;2393;50.560;12.636;2022-10-31T06:38:03;3.63;;;1.30;;
4758;SDS011;2393;50.560;12.636;2022-10-31T06:40:41;1.57;;;1.23;;
4758;SDS011;2393;50.560;12.636;2022-10-31T06:43:24;7.63;;;1.23;;
4758;SDS011;2393;50.560;12.636;2022-10-31T06:46:31;1.23;;;1.07;;
4758;SDS011;2393;50.560;12.636;2022-10-31T06:49:20;2.67;;;1.30;;
4758;SDS011;2393;50.560;12.636;2022-10-31T06:52:06;2.97;;;2.00;;
4758;SDS011;2393;50.560;12.636;2022-10-31T06:54:37;2.17;;;1.03;;
4758;SDS011;2393;50.560;12.636;2022-10-31T06:57:09;1.60;;;1.07;;
4758;SDS011;2393;50.560;12.636;2022-10-31T06:59:38;2.10;;;1.17;;
4758;SDS011;2393;50.560;12.636;2022-10-31T07:02:15;2.63;;;1.20;;
4758;SDS011;2393;50.560;12.636;2022-10-31T07:05:06;1.20;;;1.10;;
4758;SDS011;2393;50.560;12.636;2022-10-31T07:08:26;4.63;;;1.13;;
4758;SDS011;2393;50.560;12.636;2022-10-31T07:11:22;7.30;;;0.97;;
4758;SDS011;2393;50.560;12.636;2022-10-31T07:14:02;4.23;;;1.73;;
4758;SDS011;2393;50.560;12.636;2022-10-31T07:16:49;2.17;;;1.43;;
4758;SDS011;2393;50.560;12.636;2022-10-31T07:19:48;2.83;;;1.33;;
4758;SDS011;2393;50.560;12.636;2022-10-31T07:22:43;3.23;;;1.70;;
4758;SDS011;2393;50.560;12.636;2022-10-31T07:25:26;4.70;;;2.57;;
4758;SDS011;2393;50.560;12.636;2022-10-31T07:28:04;2.10;;;1.90;;
4758;SDS011;2393;50.560;12.636;2022-10-31T07:30:34;3.83;;;1.50;;
4758;SDS011;2393;50.560;12.636;2022-10-31T07:33:04;1.70;;;1.10;;
4758;SDS011;2393;50.560;12.636;2022-10-31T07:35:56;2.17;;;1.10;;
4758;SDS011;2393;50.560;12.636;2022-10-31T07:38:29;2.03;;;1.60;;
4758;SDS011;2393;50.560;12.636;2022-10-31T07:41:05;4.20;;;2.30;;
4758;SDS011;2393;50.560;12.636;2022-10-31T07:43:42;7.80;;;1.90;;
4758;SDS011;2393;50.560;12.636;2022-10-31T07:46:45;3.60;;;1.90;;
4758;SDS011;2393;50.560;12.636;2022-10-31T07:49:55;1.93;;;1.57;;
4758;SDS011;2393;50.560;12.636;2022-10-31T07:53:08;2.20;;;1.27;;
4758;SDS011;2393;50.560;12.636;2022-10-31T07:56:23;4.47;;;1.77;;
4758;SDS011;2393;50.560;12.636;2022-10-31T07:58:59;4.30;;;2.37;;
4758;SDS011;2393;50.560;12.636;2022-10-31T08:02:10;1.83;;;1.73;;
4758;SDS011;2393;50.560;12.636;2022-10-31T08:06:03;5.43;;;2.60;;
4758;SDS011;2393;50.560;12.636;2022-10-31T08:34:15;18.73;;;7.83;;
4758;SDS011;2393;50.560;12.636;2022-10-31T08:36:17;19.43;;;10.90;;
4758;SDS011;2393;50.560;12.636;2022-10-31T08:38:52;23.07;;;9.97;;
4758;SDS011;2393;50.560;12.636;2022-10-31T08:41:29;15.47;;;7.00;;
4758;SDS011;2393;50.560;12.636;2022-10-31T08:44:00;10.60;;;6.10;;
4758;SDS011;2393;50.560;12.636;2022-10-31T08:46:28;21.27;;;5.80;;
4758;SDS011;2393;50.560;12.636;2022-10-31T08:48:57;19.07;;;5.23;;
4758;SDS011;2393;50.560;12.636;2022-10-31T08:51:26;38.43;;;8.23;;
4758;SDS011;2393;50.560;12.636;2022-10-31T08:53:55;21.80;;;7.43;;
4758;SDS011;2393;50.560;12.636;2022-10-31T08:56:32;11.07;;;5.30;;
4758;SDS011;2393;50.560;12.636;2022-10-31T08:59:05;14.23;;;7.53;;
4758;SDS011;2393;50.560;12.636;2022-10-31T09:01:53;9.00;;;4.07;;
4758;SDS011;2393;50.560;12.636;2022-10-31T09:04:21;7.70;;;5.43;;
4758;SDS011;2393;50.560;12.636;2022-10-31T09:06:50;9.70;;;7.73;;
4758;SDS011;2393;50.560;12.636;2022-10-31T09:09:38;9.07;;;4.30;;
4758;SDS011;2393;50.560;12.636;2022-10-31T09:12:06;7.80;;;5.10;;
4758;SDS011;2393;50.560;12.636;2022-10-31T09:14:47;16.00;;;5.17;;
4758;SDS011;2393;50.560;12.636;2022-10-31T09:17:22;6.93;;;3.40;;
4758;SDS011;2393;50.560;12.636;2022-10-31T09:20:10;10.20;;;3.80;;
4758;SDS011;2393;50.560;12.636;2022-10-31T09:22:38;3.63;;;2.43;;
4758;SDS011;2393;50.560;12.636;2022-10-31T09:25:07;7.63;;;2.40;;
4758;SDS011;2393;50.560;12.636;2022-10-31T09:27:37;2.70;;;2.30;;
4758;SDS011;2393;50.560;12.636;2022-10-31T09:30:08;9.07;;;2.90;;
4758;SDS011;2393;50.560;12.636;2022-10-31T09:32:38;4.40;;;2.07;;
4758;SDS011;2393;50.560;12.636;2022-10-31T09:35:07;3.57;;;2.57;;
4758;SDS011;2393;50.560;12.636;2022-10-31T09:37:36;13.23;;;2.13;;
4758;SDS011;2393;50.560;12.636;2022-10-31T09:40:04;8.07;;;1.93;;
4758;SDS011;2393;50.560;12.636;2022-10-31T09:42:48;19.03;;;4.40;;
4758;SDS011;2393;50.560;12.636;2022-10-31T09:45:28;7.67;;;3.53;;
4758;SDS011;2393;50.560;12.636;2022-10-31T09:48:22;10.43;;;2.47;;
4758;SDS011;2393;50.560;12.636;2022-10-31T09:51:20;5.40;;;2.07;;
4758;SDS011;2393;50.560;12.636;2022-10-31T09:53:59;5.37;;;2.27;;
4758;SDS011;2393;50.560;12.636;2022-10-31T09:56:31;6.20;;;2.80;;
4758;SDS011;2393;50.560;12.636;2022-10-31T09:59:02;8.23;;;2.50;;
4758;SDS011;2393;50.560;12.636;2022-10-31T10:01:37;10.43;;;2.00;;
4758;SDS011;2393;50.560;12.636;2022-10-31T10:04:16;10.03;;;1.77;;
4758;SDS011;2393;50.560;12.636;2022-10-31T10:07:06;6.80;;;2.00;;
4758;SDS011;2393;50.560;12.636;2022-10-31T10:09:43;4.50;;;2.13;;
4758;SDS011;2393;50.560;12.636;2022-10-31T10:12:36;7.13;;;2.00;;
4758;SDS011;2393;50.560;12.636;2022-10-31T10:15:28;6.67;;;1.87;;
4758;SDS011;2393;50.560;12.636;2022-10-31T10:18:21;7.67;;;2.77;;
4758;SDS011;2393;50.560;12.636;2022-10-31T10:21:01;5.30;;;2.47;;
4758;SDS011;2393;50.560;12.636;2022-10-31T10:23:41;1.80;;;1.70;;
4758;SDS011;2393;50.560;12.636;2022-10-31T10:26:22;16.70;;;2.67;;
4758;SDS011;2393;50.560;12.636;2022-10-31T10:28:57;4.20;;;1.93;;
4758;SDS011;2393;50.560;12.636;2022-10-31T10:31:31;7.63;;;2.60;;
4758;SDS011;2393;50.560;12.636;2022-10-31T10:34:07;12.77;;;2.10;;
4758;SDS011;2393;50.560;12.636;2022-10-31T10:36:42;3.83;;;1.90;;
4758;SDS011;2393;50.560;12.636;2022-10-31T10:39:14;4.73;;;2.33;;
4758;SDS011;2393;50.560;12.636;2022-10-31T10:41:47;5.90;;;1.90;;
4758;SDS011;2393;50.560;12.636;2022-10-31T10:44:30;5.53;;;2.00;;
4758;SDS011;2393;50.560;12.636;2022-10-31T10:47:15;3.53;;;2.13;;
4758;SDS011;2393;50.560;12.636;2022-10-31T10:50:03;9.93;;;2.90;;
4758;SDS011;2393;50.560;12.636;2022-10-31T10:52:40;5.60;;;2.50;;
4758;SDS011;2393;50.560;12.636;2022-10-31T10:58:20;3.93;;;2.00;;
4758;SDS011;2393;50.560;12.636;2022-10-31T11:00:49;3.07;;;1.90;;
4758;SDS011;2393;50.560;12.636;2022-10-31T11:03:22;6.40;;;2.50;;
4758;SDS011;2393;50.560;12.636;2022-10-31T12:50:44;9.47;;;2.40;;
4758;SDS011;2393;50.560;12.636;2022-10-31T12:53:24;2.90;;;1.77;;
4758;SDS011;2393;50.560;12.636;2022-10-31T12:59:01;5.57;;;2.27;;
4758;SDS011;2393;50.560;12.636;2022-10-31T13:01:37;15.33;;;3.03;;
4758;SDS011;2393;50.560;12.636;2022-10-31T13:04:10;9.87;;;2.30;;
4758;SDS011;2393;50.560;12.636;2022-10-31T13:06:46;6.37;;;2.33;;
4758;SDS011;2393;50.560;12.636;2022-10-31T14:21:30;4.30;;;2.30;;
4758;SDS011;2393;50.560;12.636;2022-10-31T14:24:12;6.33;;;2.60;;
4758;SDS011;2393;50.560;12.636;2022-10-31T14:26:51;6.20;;;2.70;;
4758;SDS011;2393;50.560;12.636;2022-10-31T14:29:22;4.40;;;3.83;;
4758;SDS011;2393;50.560;12.636;2022-10-31T14:31:53;3.20;;;2.10;;
4758;SDS011;2393;50.560;12.636;2022-10-31T14:34:25;6.13;;;2.83;;
4758;SDS011;2393;50.560;12.636;2022-10-31T14:37:08;6.60;;;3.23;;
4758;SDS011;2393;50.560;12.636;2022-10-31T14:49:40;6.23;;;2.53;;
4758;SDS011;2393;50.560;12.636;2022-10-31T14:56:57;7.80;;;3.20;;
4758;SDS011;2393;50.560;12.636;2022-10-31T15:06:09;2.97;;;2.10;;
4758;SDS011;2393;50.560;12.636;2022-10-31T15:09:58;2.70;;;1.90;;
4758;SDS011;2393;50.560;12.636;2022-10-31T15:12:28;4.57;;;2.53;;
4758;SDS011;2393;50.560;12.636;2022-10-31T15:15:09;5.20;;;2.53;;
4758;SDS011;2393;50.560;12.636;2022-10-31T15:17:41;7.50;;;2.80;;
4758;SDS011;2393;50.560;12.636;2022-10-31T15:20:11;15.13;;;3.13;;
4758;SDS011;2393;50.560;12.636;2022-10-31T15:22:44;4.13;;;2.40;;
4758;SDS011;2393;50.560;12.636;2022-10-31T15:25:16;6.50;;;2.57;;
4758;SDS011;2393;50.560;12.636;2022-10-31T15:27:46;5.60;;;2.30;;
4758;SDS011;2393;50.560;12.636;2022-10-31T15:30:16;4.93;;;2.17;;
4758;SDS011;2393;50.560;12.636;2022-10-31T15:32:46;4.53;;;2.03;;
4758;SDS011;2393;50.560;12.636;2022-10-31T15:35:24;2.60;;;2.40;;
4758;SDS011;2393;50.560;12.636;2022-10-31T15:37:56;6.50;;;2.63;;
4758;SDS011;2393;50.560;12.636;2022-10-31T15:40:27;4.90;;;3.00;;
4758;SDS011;2393;50.560;12.636;2022-10-31T15:42:56;5.47;;;2.97;;
4758;SDS011;2393;50.560;12.636;2022-10-31T15:45:27;3.43;;;2.73;;
4758;SDS011;2393;50.560;12.636;2022-10-31T15:47:59;4.80;;;2.10;;
4758;SDS011;2393;50.560;12.636;2022-10-31T15:50:31;2.87;;;2.30;;
4758;SDS011;2393;50.560;12.636;2022-10-31T15:53:04;5.53;;;2.57;;
4758;SDS011;2393;50.560;12.636;2022-10-31T15:55:46;9.07;;;3.33;;
4758;SDS011;2393;50.560;12.636;2022-10-31T15:58:17;8.50;;;3.03;;
4758;SDS011;2393;50.560;12.636;2022-10-31T16:00:45;4.10;;;2.83;;
4758;SDS011;2393;50.560;12.636;2022-10-31T16:03:25;4.90;;;2.43;;
4758;SDS011;2393;50.560;12.636;2022-10-31T16:05:55;6.97;;;2.10;;
4758;SDS011;2393;50.560;12.636;2022-10-31T16:08:31;6.70;;;3.10;;
4758;SDS011;2393;50.560;12.636;2022-10-31T16:11:16;5.37;;;2.70;;
4758;SDS011;2393;50.560;12.636;2022-10-31T16:13:53;7.00;;;2.27;;
4758;SDS011;2393;50.560;12.636;2022-10-31T16:16:28;9.70;;;3.60;;
4758;SDS011;2393;50.560;12.636;2022-10-31T16:19:02;15.10;;;3.67;;
4758;SDS011;2393;50.560;12.636;2022-10-31T16:21:33;2.97;;;2.53;;
4758;SDS011;2393;50.560;12.636;2022-10-31T16:24:10;5.87;;;2.80;;
4758;SDS011;2393;50.560;12.636;2022-10-31T16:26:47;5.23;;;3.20;;
4758;SDS011;2393;50.560;12.636;2022-10-31T16:29:27;4.90;;;3.10;;
4758;SDS011;2393;50.560;12.636;2022-10-31T16:32:00;7.30;;;3.10;;
4758;SDS011;2393;50.560;12.636;2022-10-31T16:34:29;3.43;;;2.97;;
4758;SDS011;2393;50.560;12.636;2022-10-31T16:36:57;7.50;;;3.37;;
4758;SDS011;2393;50.560;12.636;2022-10-31T16:39:26;3.27;;;2.53;;
4758;SDS011;2393;50.560;12.636;2022-10-31T16:41:55;5.60;;;3.37;;
4758;SDS011;2393;50.560;12.636;2022-10-31T16:44:24;3.77;;;3.40;;
4758;SDS011;2393;50.560;12.636;2022-10-31T16:47:09;8.17;;;3.40;;
4758;SDS011;2393;50.560;12.636;2022-10-31T16:49:41;8.77;;;4.70;;
4758;SDS011;2393;50.560;12.636;2022-10-31T16:52:11;7.90;;;4.73;;
4758;SDS011;2393;50.560;12.636;2022-10-31T16:54:40;5.50;;;4.13;;
4758;SDS011;2393;50.560;12.636;2022-10-31T16:57:11;17.80;;;7.33;;
4758;SDS011;2393;50.560;12.636;2022-10-31T16:59:42;6.53;;;3.80;;
4758;SDS011;2393;50.560;12.636;2022-10-31T17:02:12;7.30;;;3.30;;
4758;SDS011;2393;50.560;12.636;2022-10-31T17:04:43;8.90;;;3.30;;
4758;SDS011;2393;50.560;12.636;2022-10-31T17:07:14;5.13;;;3.80;;
4758;SDS011;2393;50.560;12.636;2022-10-31T17:09:43;17.53;;;4.13;;
4758;SDS011;2393;50.560;12.636;2022-10-31T17:12:13;9.63;;;5.73;;
4758;SDS011;2393;50.560;12.636;2022-10-31T17:14:45;8.63;;;4.10;;
4758;SDS011;2393;50.560;12.636;2022-10-31T17:17:17;11.13;;;3.67;;
4758;SDS011;2393;50.560;12.636;2022-10-31T17:19:46;3.63;;;3.33;;
4758;SDS011;2393;50.560;12.636;2022-10-31T17:22:14;11.77;;;3.80;;
4758;SDS011;2393;50.560;12.636;2022-10-31T17:24:42;6.27;;;3.77;;
4758;SDS011;2393;50.560;12.636;2022-10-31T17:27:10;4.97;;;3.60;;
4758;SDS011;2393;50.560;12.636;2022-10-31T17:29:39;3.43;;;3.13;;
4758;SDS011;2393;50.560;12.636;2022-10-31T17:32:07;8.13;;;4.07;;
4758;SDS011;2393;50.560;12.636;2022-10-31T17:34:35;4.93;;;2.70;;
4758;SDS011;2393;50.560;12.636;2022-10-31T17:37:04;3.67;;;2.80;;
4758;SDS011;2393;50.560;12.636;2022-10-31T17:39:33;5.43;;;4.10;;
4758;SDS011;2393;50.560;12.636;2022-10-31T17:42:01;5.07;;;3.00;;
4758;SDS011;2393;50.560;12.636;2022-10-31T17:44:29;5.33;;;3.47;;
4758;SDS011;2393;50.560;12.636;2022-10-31T17:46:58;3.33;;;3.03;;
4758;SDS011;2393;50.560;12.636;2022-10-31T17:49:27;5.57;;;2.60;;
4758;SDS011;2393;50.560;12.636;2022-10-31T17:51:55;4.23;;;3.17;;
4758;SDS011;2393;50.560;12.636;2022-10-31T17:54:24;12.97;;;3.67;;
4758;SDS011;2393;50.560;12.636;2022-10-31T17:56:52;5.97;;;3.80;;
4758;SDS011;2393;50.560;12.636;2022-10-31T17:59:20;2.17;;;2.00;;
4758;SDS011;2393;50.560;12.636;2022-10-31T18:01:48;3.47;;;3.17;;
4758;SDS011;2393;50.560;12.636;2022-10-31T18:04:17;6.43;;;3.60;;
4758;SDS011;2393;50.560;12.636;2022-10-31T18:06:47;7.80;;;4.03;;
4758;SDS011;2393;50.560;12.636;2022-10-31T18:09:15;4.30;;;2.80;;
4758;SDS011;2393;50.560;12.636;2022-10-31T18:11:43;5.83;;;3.30;;
4758;SDS011;2393;50.560;12.636;2022-10-31T18:14:12;7.97;;;3.10;;
4758;SDS011;2393;50.560;12.636;2022-10-31T18:16:40;13.53;;;3.27;;
4758;SDS011;2393;50.560;12.636;2022-10-31T18:19:09;4.73;;;2.77;;
4758;SDS011;2393;50.560;12.636;2022-10-31T18:21:40;6.33;;;2.83;;
4758;SDS011;2393;50.560;12.636;2022-10-31T18:24:09;5.50;;;2.83;;
4758;SDS011;2393;50.560;12.636;2022-10-31T18:26:37;2.77;;;2.53;;
4758;SDS011;2393;50.560;12.636;2022-10-31T18:29:05;4.87;;;2.37;;
4758;SDS011;2393;50.560;12.636;2022-10-31T18:31:33;7.53;;;3.00;;
4758;SDS011;2393;50.560;12.636;2022-10-31T18:34:01;7.80;;;3.70;;
4758;SDS011;2393;50.560;12.636;2022-10-31T18:36:29;6.53;;;4.00;;
4758;SDS011;2393;50.560;12.636;2022-10-31T18:38:59;2.97;;;2.60;;
4758;SDS011;2393;50.560;12.636;2022-10-31T18:41:28;8.57;;;4.17;;
4758;SDS011;2393;50.560;12.636;2022-10-31T18:43:56;3.90;;;2.67;;
4758;SDS011;2393;50.560;12.636;2022-10-31T18:46:26;6.17;;;3.57;;
4758;SDS011;2393;50.560;12.636;2022-10-31T18:48:56;7.73;;;3.27;;
4758;SDS011;2393;50.560;12.636;2022-10-31T18:51:24;4.80;;;3.47;;
4758;SDS011;2393;50.560;12.636;2022-10-31T18:53:53;6.23;;;3.30;;
4758;SDS011;2393;50.560;12.636;2022-10-31T18:56:25;11.10;;;4.77;;
4758;SDS011;2393;50.560;12.636;2022-10-31T18:58:57;7.33;;;3.43;;
4758;SDS011;2393;50.560;12.636;2022-10-31T19:01:27;7.90;;;4.00;;
4758;SDS011;2393;50.560;12.636;2022-10-31T19:03:56;8.30;;;3.20;;
4758;SDS011;2393;50.560;12.636;2022-10-31T19:06:25;4.33;;;2.60;;
4758;SDS011;2393;50.560;12.636;2022-10-31T19:08:57;7.33;;;3.70;;
4758;SDS011;2393;50.560;12.636;2022-10-31T19:11:27;14.40;;;4.30;;
4758;SDS011;2393;50.560;12.636;2022-10-31T19:13:58;4.43;;;3.53;;
4758;SDS011;2393;50.560;12.636;2022-10-31T19:16:27;4.20;;;2.90;;
4758;SDS011;2393;50.560;12.636;2022-10-31T19:18:56;15.93;;;2.90;;
4758;SDS011;2393;50.560;12.636;2022-10-31T19:21:27;18.00;;;9.40;;
4758;SDS011;2393;50.560;12.636;2022-10-31T19:23:58;19.77;;;7.63;;
4758;SDS011;2393;50.560;12.636;2022-10-31T19:26:27;5.10;;;2.80;;
4758;SDS011;2393;50.560;12.636;2022-10-31T19:28:56;4.73;;;3.00;;
4758;SDS011;2393;50.560;12.636;2022-10-31T19:31:24;4.20;;;3.07;;
4758;SDS011;2393;50.560;12.636;2022-10-31T19:33:53;3.73;;;2.50;;
4758;SDS011;2393;50.560;12.636;2022-10-31T19:36:22;4.90;;;2.33;;
4758;SDS011;2393;50.560;12.636;2022-10-31T19:38:51;14.63;;;2.73;;
4758;SDS011;2393;50.560;12.636;2022-10-31T19:41:21;4.63;;;3.50;;
4758;SDS011;2393;50.560;12.636;2022-10-31T19:43:53;4.43;;;3.43;;
4758;SDS011;2393;50.560;12.636;2022-10-31T19:46:22;5.77;;;3.03;;
4758;SDS011;2393;50.560;12.636;2022-10-31T19:49:11;4.70;;;2.47;;
4758;SDS011;2393;50.560;12.636;2022-10-31T19:51:39;3.77;;;2.43;;
4758;SDS011;2393;50.560;12.636;2022-10-31T19:54:09;4.87;;;2.63;;
4758;SDS011;2393;50.560;12.636;2022-10-31T19:56:39;7.13;;;3.17;;
4758;SDS011;2393;50.560;12.636;2022-10-31T19:59:08;13.63;;;2.80;;
4758;SDS011;2393;50.560;12.636;2022-10-31T20:01:37;11.90;;;3.30;;
4758;SDS011;2393;50.560;12.636;2022-10-31T20:04:06;3.50;;;2.30;;
4758;SDS011;2393;50.560;12.636;2022-10-31T20:06:35;6.53;;;2.80;;
4758;SDS011;2393;50.560;12.636;2022-10-31T20:09:06;7.87;;;2.93;;
4758;SDS011;2393;50.560;12.636;2022-10-31T20:11:36;4.40;;;2.90;;
4758;SDS011;2393;50.560;12.636;2022-10-31T20:14:04;6.10;;;2.90;;
4758;SDS011;2393;50.560;12.636;2022-10-31T20:16:36;6.27;;;3.07;;
4758;SDS011;2393;50.560;12.636;2022-10-31T20:19:11;25.80;;;11.30;;
4758;SDS011;2393;50.560;12.636;2022-10-31T20:21:40;10.93;;;5.57;;
4758;SDS011;2393;50.560;12.636;2022-10-31T20:24:09;4.83;;;3.33;;
4758;SDS011;2393;50.560;12.636;2022-10-31T20:26:39;5.77;;;3.97;;
4758;SDS011;2393;50.560;12.636;2022-10-31T20:29:09;10.43;;;4.03;;
4758;SDS011;2393;50.560;12.636;2022-10-31T20:31:43;7.73;;;4.03;;
4758;SDS011;2393;50.560;12.636;2022-10-31T20:34:12;6.20;;;3.97;;
4758;SDS011;2393;50.560;12.636;2022-10-31T20:36:40;7.80;;;4.77;;
4758;SDS011;2393;50.560;12.636;2022-10-31T20:39:09;7.83;;;4.50;;
4758;SDS011;2393;50.560;12.636;2022-10-31T20:41:38;4.33;;;2.83;;
4758;SDS011;2393;50.560;12.636;2022-10-31T20:44:06;8.90;;;2.80;;
4758;SDS011;2393;50.560;12.636;2022-10-31T20:46:35;5.20;;;2.80;;
4758;SDS011;2393;50.560;12.636;2022-10-31T20:49:06;5.30;;;2.30;;
4758;SDS011;2393;50.560;12.636;2022-10-31T20:51:34;3.90;;;2.50;;
4758;SDS011;2393;50.560;12.636;2022-10-31T20:54:03;6.83;;;2.87;;
4758;SDS011;2393;50.560;12.636;2022-10-31T20:56:32;4.50;;;3.50;;
4758;SDS011;2393;50.560;12.636;2022-10-31T20:59:01;15.20;;;4.03;;
4758;SDS011;2393;50.560;12.636;2022-10-31T21:01:29;4.87;;;2.63;;
4758;SDS011;2393;50.560;12.636;2022-10-31T21:03:59;5.37;;;2.53;;
4758;SDS011;2393;50.560;12.636;2022-10-31T21:06:29;4.60;;;2.53;;
4758;SDS011;2393;50.560;12.636;2022-10-31T21:08:58;5.70;;;2.60;;
4758;SDS011;2393;50.560;12.636;2022-10-31T21:11:27;3.77;;;2.77;;
4758;SDS011;2393;50.560;12.636;2022-10-31T21:13:57;2.20;;;1.60;;
4758;SDS011;2393;50.560;12.636;2022-10-31T21:16:27;6.10;;;2.67;;
4758;SDS011;2393;50.560;12.636;2022-10-31T21:18:58;4.23;;;2.93;;
4758;SDS011;2393;50.560;12.636;2022-10-31T21:21:28;4.13;;;2.33;;
4758;SDS011;2393;50.560;12.636;2022-10-31T21:24:00;5.07;;;2.03;;
4758;SDS011;2393;50.560;12.636;2022-10-31T21:26:32;5.27;;;2.50;;
4758;SDS011;2393;50.560;12.636;2022-10-31T21:29:05;10.77;;;2.50;;
4758;SDS011;2393;50.560;12.636;2022-10-31T21:31:35;6.07;;;2.53;;
4758;SDS011;2393;50.560;12.636;2022-10-31T21:34:05;3.17;;;2.40;;
4758;SDS011;2393;50.560;12.636;2022-10-31T21:36:36;4.03;;;2.20;;
4758;SDS011;2393;50.560;12.636;2022-10-31T21:39:05;6.80;;;2.87;;
4758;SDS011;2393;50.560;12.636;2022-10-31T21:41:35;3.37;;;2.67;;
4758;SDS011;2393;50.560;12.636;2022-10-31T21:44:04;8.63;;;3.03;;
4758;SDS011;2393;50.560;12.636;2022-10-31T21:46:33;3.77;;;2.67;;
4758;SDS011;2393;50.560;12.636;2022-10-31T21:49:04;3.50;;;2.80;;
4758;SDS011;2393;50.560;12.636;2022-10-31T21:51:33;4.07;;;2.43;;
4758;SDS011;2393;50.560;12.636;2022-10-31T21:54:04;3.53;;;2.43;;
4758;SDS011;2393;50.560;12.636;2022-10-31T21:56:51;3.30;;;2.03;;
4758;SDS011;2393;50.560;12.636;2022-10-31T21:59:19;3.87;;;2.03;;
4758;SDS011;2393;50.560;12.636;2022-10-31T22:01:52;6.70;;;2.70;;
4758;SDS011;2393;50.560;12.636;2022-10-31T22:04:31;3.30;;;2.17;;
4758;SDS011;2393;50.560;12.636;2022-10-31T22:07:26;3.60;;;2.00;;
4758;SDS011;2393;50.560;12.636;2022-10-31T22:09:55;7.67;;;2.40;;
4758;SDS011;2393;50.560;12.636;2022-10-31T22:12:23;5.40;;;2.47;;
4758;SDS011;2393;50.560;12.636;2022-10-31T22:14:51;4.77;;;2.77;;
4758;SDS011;2393;50.560;12.636;2022-10-31T22:17:19;4.97;;;2.60;;
4758;SDS011;2393;50.560;12.636;2022-10-31T22:19:47;8.53;;;2.40;;
4758;SDS011;2393;50.560;12.636;2022-10-31T22:22:14;10.93;;;3.27;;